Weather at Pribram Airport

Public forecast

Using degrees Celsius for public forecast. Weather courtesy of forecast.io.

Closest aviation weather report (METAR) to Pribram Airport

Closest report is Václav Havel Airport Prague, 23.7 nm (43.8 km) NNE. Retrieved 2021/10/26 04:00 UTC (9 minutes ago):

LKPR 260400Z 22006KT CAVOK 02/00 Q1021 NOSIG

Closest aviation forecast (TAF) to Pribram Airport

Closest forecast is Václav Havel Airport Prague, 23.7 nm (43.8 km) NNE. Retrieved 2021-10-26 00:06 UTC (4 hours ago):

TAF LKPR 252300Z 2600/2706 20005KT CAVOK PROB30 TEMPO 2602/2607 5000 BR NSC BECMG 2609/2611 24010KT TEMPO 2611/2617 9999 BKN030 BECMG 2623/2702 3000 BR SCT003 TEMPO 2702/2706 1700 BR BKN003 PROB30 TEMPO 2702/2706 0800 FG OVC001